Joetown, Iowa
Current Conditions -  °F | °C
As of 10:35 AM on Monday 26 Jan 2015 (Local Time) from KAWG Reporting Station
Overcast Overcast  
Wind Chill: 23°   Ceiling: 6500
Heat Index: 32°   Visibility: 10mi
Dew Point: 32°   Wind: 12mph
Humidity: 100%   Direction: 180°S
Pressure: 29.87"   Gusts: NA
Location:  41.4676°N, 91.7053°W
Report Text: KAWG 261635Z AUTO 18010KT 10SM FEW029 OVC065 M00/M00 A2987 RMK AO2
Loading
Personal Weather Stations






























Interactive Weather Map New forecast layout! Learn more

10-Day Weather Forecast

Advertisements
Track Severe Weather on mobile